Terminal Aerodrome Forecast
Issued by NWS Grand Forks, ND

Home | Current Version | Previous Version | Text Only | Print | Product List | Glossary Off
Versions: 1 2 3 4 5 6 7 8 9 10 11 12 13 14 15 16 17 18 19

142
FTUS43 KFGF 291122
TAFGFK
TAF
KGFK 291122Z 2912/3012 32010KT P6SM BKN015
      TEMPO 2913/2916 BKN030
     FM291600 31010KT P6SM BKN025
      TEMPO 2916/2918 BKN040
     FM291800 30010KT P6SM BKN040
     FM292100 30010KT P6SM SCT200=

USA.gov is the U.S. government's official web portal to all federal, state and local government web resources and services.